Time;durP1;ratioP1;P1;durP2;ratioP2;P2;SDS_P1;SDS_P2;PMS_P1;PMS_P2;Temp;Humidity;BMP_temperature;BMP_pressure;BME280_temperature;BME280_humidity;BME280_pressure;Samples;Min_cycle;Max_cycle;Signal;HPM_P1;HPM_P2
2022/07/05 00:02:27;;;;;;;3.60;1.65;;;18.50;99.90;;;;;;6710546;88;20235;-78
2022/07/05 00:12:32;;;;;;;3.50;1.65;;;18.20;99.90;;;;;;6715031;88;20181;-77
2022/07/05 00:22:32;;;;;;;4.47;1.83;;;18.00;99.90;;;;;;6710317;88;20240;-77
2022/07/05 00:32:33;;;;;;;3.10;1.70;;;17.70;99.90;;;;;;6711648;88;20823;-77
2022/07/05 00:42:34;;;;;;;4.65;2.22;;;17.80;99.90;;;;;;6714035;88;20217;-77
2022/07/05 00:52:34;;;;;;;4.00;2.33;;;17.90;99.90;;;;;;6714155;88;20282;-77
2022/07/05 01:02:35;;;;;;;6.30;2.20;;;17.70;99.90;;;;;;6710440;88;20677;-76
2022/07/05 01:12:40;;;;;;;3.85;2.35;;;17.40;99.90;;;;;;6715280;88;20223;-77
2022/07/05 01:22:59;;;;;;;4.30;2.50;;;17.50;99.90;;;;;;6712822;88;20393;-77
2022/07/05 01:33:00;;;;;;;5.07;2.55;;;17.00;99.90;;;;;;6710024;88;20185;-77
2022/07/05 01:43:02;;;;;;;6.45;3.00;;;17.00;99.90;;;;;;6710379;88;20214;-77
2022/07/05 01:53:04;;;;;;;6.62;3.00;;;16.90;99.90;;;;;;6708321;88;20194;-77
2022/07/05 02:03:04;;;;;;;5.35;3.20;;;16.70;99.90;;;;;;6713526;88;20641;-78
2022/07/05 02:13:06;;;;;;;8.65;3.30;;;16.50;99.90;;;;;;6715671;88;20195;-78
2022/07/05 02:23:07;;;;;;;6.30;3.47;;;16.30;99.90;;;;;;6712109;88;20276;-77
2022/07/05 02:33:07;;;;;;;7.03;3.55;;;16.20;99.90;;;;;;6716013;88;20204;-78
2022/07/05 02:43:08;;;;;;;7.22;3.95;;;16.20;99.90;;;;;;6717600;88;20207;-77
2022/07/05 02:53:08;;;;;;;5.57;3.55;;;16.20;99.90;;;;;;6715259;88;20251;-78
2022/07/05 03:03:09;;;;;;;6.50;3.40;;;16.30;99.90;;;;;;6724398;88;20272;-78
2022/07/05 03:13:10;;;;;;;7.53;3.60;;;16.50;99.90;;;;;;6719056;88;20689;-78
2022/07/05 03:23:10;;;;;;;9.90;3.60;;;16.10;99.90;;;;;;6717106;88;20226;-78
2022/07/05 03:33:11;;;;;;;7.22;3.72;;;16.10;99.90;;;;;;6717904;88;20206;-78
2022/07/05 03:43:11;;;;;;;5.80;3.50;;;16.50;99.90;;;;;;6719667;88;20635;-78
2022/07/05 03:53:12;;;;;;;5.40;3.60;;;16.50;99.90;;;;;;6719521;88;20324;-79
2022/07/05 04:03:12;;;;;;;6.43;3.75;;;16.60;99.90;;;;;;6718181;88;20177;-78
2022/07/05 04:13:13;;;;;;;13.70;3.85;;;16.50;99.90;;;;;;6717680;88;20652;-77
2022/07/05 04:23:14;;;;;;;8.13;3.85;;;16.50;99.90;;;;;;6720418;88;20182;-78
2022/07/05 04:33:14;;;;;;;6.07;3.75;;;16.40;99.90;;;;;;6730886;88;20190;-78
2022/07/05 04:43:15;;;;;;;8.70;4.68;;;16.70;99.90;;;;;;6717707;88;20580;-78
2022/07/05 04:53:15;;;;;;;9.60;4.57;;;16.40;99.90;;;;;;6719810;88;20204;-77
2022/07/05 05:03:16;;;;;;;7.20;4.13;;;16.60;99.90;;;;;;6718992;88;20209;-78
2022/07/05 05:13:16;;;;;;;9.65;5.10;;;16.60;99.90;;;;;;6720042;88;20538;-77
2022/07/05 05:23:17;;;;;;;7.97;4.95;;;16.30;99.90;;;;;;6717093;88;20174;-77
2022/07/05 05:33:17;;;;;;;11.20;5.68;;;16.40;99.90;;;;;;6716534;88;20190;-77
2022/07/05 05:53:21;;;;;;;10.32;6.03;;;16.40;99.90;;;;;;6762967;87;20346;-79
2022/07/05 06:03:23;;;;;;;12.37;5.80;;;16.70;99.90;;;;;;6761256;88;20281;-79
2022/07/05 06:13:24;;;;;;;8.68;5.25;;;17.10;99.90;;;;;;6762468;88;20184;-80
2022/07/05 06:23:24;;;;;;;8.53;5.13;;;17.90;99.90;;;;;;6764950;88;20185;-80
2022/07/05 06:33:25;;;;;;;9.13;4.70;;;18.50;99.90;;;;;;6768521;87;20508;-80
2022/07/05 06:43:25;;;;;;;10.20;4.20;;;18.70;99.90;;;;;;6763813;87;20347;-80
2022/07/05 06:53:26;;;;;;;8.35;4.45;;;19.30;99.90;;;;;;6754013;87;20730;-78
2022/07/05 07:03:27;;;;;;;7.50;3.75;;;19.70;99.90;;;;;;6753865;87;20195;-78
2022/07/05 07:13:27;;;;;;;6.55;3.58;;;20.10;99.90;;;;;;6754113;87;20191;-78
2022/07/05 07:23:28;;;;;;;27.40;4.90;;;21.20;99.90;;;;;;6756365;88;20305;-80
2022/07/05 07:33:28;;;;;;;8.80;4.60;;;21.50;99.90;;;;;;6754928;87;20719;-79
2022/07/05 07:43:29;;;;;;;6.25;3.08;;;21.90;99.90;;;;;;6755991;87;20205;-79
2022/07/05 07:53:29;;;;;;;8.38;4.32;;;22.90;99.90;;;;;;6759922;88;20707;-79
2022/07/05 08:03:31;;;;;;;7.90;3.85;;;22.60;99.90;;;;;;6761470;87;20613;-80
2022/07/05 08:13:32;;;;;;;8.75;3.95;;;23.50;99.90;;;;;;6760561;87;20305;-79
2022/07/05 08:23:32;;;;;;;8.03;3.47;;;24.60;98.70;;;;;;6753507;87;20755;-80
2022/07/05 08:33:33;;;;;;;8.90;3.20;;;25.40;95.90;;;;;;6759969;87;20224;-79
2022/07/05 08:43:36;;;;;;;6.18;3.60;;;25.90;94.40;;;;;;6759496;87;20734;-80
2022/07/05 08:53:37;;;;;;;5.90;2.33;;;25.70;92.40;;;;;;6761262;87;20236;-79
2022/07/05 09:03:41;;;;;;;5.82;4.40;;;26.70;91.10;;;;;;6761726;87;20646;-79
2022/07/05 09:13:51;;;;;;;8.40;3.85;;;26.60;88.00;;;;;;6753301;88;20597;-78
2022/07/05 09:23:57;;;;;;;5.32;2.90;;;27.00;87.70;;;;;;6756269;88;20229;-80
2022/07/05 09:34:16;;;;;;;5.75;2.80;;;26.50;87.00;;;;;;6755849;87;20183;-79
2022/07/05 09:44:26;;;;;;;5.53;2.55;;;25.10;87.80;;;;;;6754966;88;20198;-79
2022/07/05 09:54:26;;;;;;;5.40;1.90;;;25.40;85.00;;;;;;6758588;87;20214;-80
2022/07/05 10:04:27;;;;;;;7.03;2.20;;;26.80;81.70;;;;;;6759587;87;20160;-79
2022/07/05 10:14:28;;;;;;;4.70;1.47;;;25.70;82.90;;;;;;6773168;87;20193;-79
2022/07/05 10:24:34;;;;;;;2.43;1.30;;;27.30;77.40;;;;;;6773095;87;20530;-78
2022/07/05 10:34:35;;;;;;;3.15;1.40;;;27.10;76.60;;;;;;6777178;87;20193;-78
2022/07/05 10:44:37;;;;;;;3.55;1.52;;;27.80;74.10;;;;;;6780104;88;20173;-79
2022/07/05 10:55:16;;;;;;;3.60;1.30;;;26.30;73.50;;;;;;6762497;87;20192;-80
2022/07/05 11:05:17;;;;;;;2.90;1.20;;;28.20;73.80;;;;;;6759272;87;20319;-79
2022/07/05 11:15:18;;;;;;;3.30;1.33;;;28.10;69.60;;;;;;6763574;87;20737;-78
2022/07/05 11:25:19;;;;;;;3.58;1.30;;;26.60;72.50;;;;;;6766772;88;20199;-78
2022/07/05 11:35:20;;;;;;;3.85;1.58;;;28.20;70.80;;;;;;6763815;88;20239;-79
2022/07/05 11:55:26;;;;;;;5.65;1.70;;;28.10;67.90;;;;;;6745945;88;20264;-83
2022/07/05 12:05:31;;;;;;;3.33;1.50;;;29.20;67.50;;;;;;6747847;88;20207;-83
2022/07/05 12:15:32;;;;;;;4.40;1.40;;;28.80;67.30;;;;;;6743899;88;20722;-81
2022/07/05 12:25:34;;;;;;;2.33;1.30;;;29.80;65.40;;;;;;6746087;88;20210;-82
2022/07/05 12:35:44;;;;;;;3.17;1.20;;;30.40;64.80;;;;;;6745007;88;20236;-82
2022/07/05 12:46:05;;;;;;;2.35;1.23;;;30.10;65.20;;;;;;6748471;88;20235;-81
2022/07/05 13:06:52;;;;;;;2.58;1.20;;;30.20;64.80;;;;;;6695593;89;20194;-82
2022/07/05 13:16:53;;;;;;;2.67;1.30;;;30.40;63.60;;;;;;6695276;89;20156;-83
2022/07/05 13:26:54;;;;;;;3.40;1.45;;;30.10;63.30;;;;;;6693542;89;20236;-82
2022/07/05 13:36:59;;;;;;;5.75;1.58;;;29.40;63.50;;;;;;6692885;89;20246;-81
2022/07/05 13:47:00;;;;;;;4.90;1.27;;;30.40;63.30;;;;;;6693646;88;20191;-81
2022/07/05 13:57:01;;;;;;;2.58;1.33;;;28.80;63.20;;;;;;6710632;88;20726;-79
2022/07/05 14:07:01;;;;;;;4.45;1.30;;;28.00;63.80;;;;;;6723151;88;20933;-83
2022/07/05 14:17:02;;;;;;;3.30;1.40;;;27.70;65.60;;;;;;6718528;88;20193;-80
2022/07/05 14:27:06;;;;;;;1.70;1.20;;;28.80;64.90;;;;;;6717433;88;20203;-79
2022/07/05 14:37:07;;;;;;;5.05;1.33;;;29.30;63.40;;;;;;6715724;88;20181;-79
2022/07/05 14:47:08;;;;;;;2.67;1.48;;;29.50;62.80;;;;;;6727832;88;20654;-80
2022/07/05 14:57:08;;;;;;;4.07;1.23;;;28.00;63.00;;;;;;6719424;88;20197;-79
2022/07/05 15:07:09;;;;;;;4.00;1.30;;;27.40;65.20;;;;;;6712044;88;20194;-79
2022/07/05 15:17:10;;;;;;;4.62;1.20;;;28.70;63.70;;;;;;6711380;88;20231;-79
2022/07/05 15:27:10;;;;;;;7.53;1.40;;;27.90;64.60;;;;;;6725778;88;20211;-79
2022/07/05 15:37:11;;;;;;;3.78;1.77;;;27.80;63.10;;;;;;6735866;88;20179;-78
2022/07/05 15:47:12;;;;;;;3.97;1.30;;;26.90;65.50;;;;;;6712115;88;20218;-77
2022/07/05 15:57:12;;;;;;;3.20;1.92;;;27.20;64.90;;;;;;6714254;88;20244;-78
2022/07/05 16:07:13;;;;;;;4.62;1.90;;;26.70;65.30;;;;;;6716338;88;20762;-79
2022/07/05 16:17:13;;;;;;;3.50;1.40;;;27.10;65.70;;;;;;6720326;88;20263;-78
2022/07/05 16:27:14;;;;;;;2.78;1.48;;;27.80;65.10;;;;;;6718976;88;20531;-78
2022/07/05 16:37:14;;;;;;;22.60;2.08;;;27.10;64.40;;;;;;6713796;88;20238;-79
2022/07/05 16:47:15;;;;;;;2.50;1.20;;;26.70;65.70;;;;;;6710945;88;20337;-80
2022/07/05 16:57:16;;;;;;;3.60;1.40;;;26.40;65.50;;;;;;6712146;88;20260;-80
2022/07/05 17:07:16;;;;;;;2.60;1.45;;;26.80;66.40;;;;;;6710861;88;20706;-78
2022/07/05 17:17:17;;;;;;;14.52;1.85;;;26.50;66.40;;;;;;6711118;88;20209;-80
2022/07/05 17:27:17;;;;;;;4.37;1.80;;;27.30;66.50;;;;;;6715374;88;20727;-81
2022/07/05 17:37:18;;;;;;;5.93;2.00;;;26.80;69.90;;;;;;6719635;88;20202;-81
2022/07/05 17:57:22;;;;;;;4.43;2.28;;;25.10;74.20;;;;;;6751648;88;20233;-80
2022/07/05 18:07:22;;;;;;;5.30;2.83;;;25.60;74.30;;;;;;6739155;88;20324;-82
2022/07/05 18:17:23;;;;;;;6.75;2.62;;;24.60;75.60;;;;;;6742839;88;20210;-82
2022/07/05 18:27:23;;;;;;;10.57;2.58;;;24.60;75.80;;;;;;6744683;88;20196;-80
2022/07/05 18:37:24;;;;;;;5.37;2.08;;;23.90;77.30;;;;;;6739571;88;20223;-79
2022/07/05 18:47:25;;;;;;;6.57;2.00;;;23.60;78.40;;;;;;6739566;88;20259;-79
2022/07/05 18:57:25;;;;;;;4.80;1.90;;;22.90;81.00;;;;;;6742133;88;20217;-80
2022/07/05 19:17:45;;;;;;;7.03;1.83;;;22.00;84.30;;;;;;6730926;88;20238;-80
2022/07/05 19:27:46;;;;;;;4.90;1.50;;;21.50;87.00;;;;;;6739430;88;20198;-80
2022/07/05 19:37:47;;;;;;;4.62;1.45;;;21.20;90.40;;;;;;6738688;88;20258;-79
2022/07/05 19:47:48;;;;;;;4.93;1.50;;;21.10;91.40;;;;;;6735402;88;20259;-79
2022/07/05 19:57:48;;;;;;;12.30;2.12;;;20.80;91.00;;;;;;6731613;88;20217;-80
2022/07/05 20:07:49;;;;;;;4.75;1.23;;;20.60;91.50;;;;;;6723156;88;20223;-78
2022/07/05 20:17:49;;;;;;;3.97;1.13;;;20.40;92.10;;;;;;6729464;88;20215;-79
2022/07/05 20:27:50;;;;;;;3.72;1.15;;;20.20;93.10;;;;;;6721409;88;20525;-78
2022/07/05 20:37:50;;;;;;;4.55;1.33;;;20.00;93.60;;;;;;6732085;88;20194;-78
2022/07/05 20:47:51;;;;;;;3.53;1.48;;;19.80;94.40;;;;;;6722985;88;20210;-78
2022/07/05 20:57:51;;;;;;;6.18;1.50;;;19.60;95.30;;;;;;6721508;88;20684;-78
2022/07/05 21:07:52;;;;;;;4.10;1.58;;;19.40;95.90;;;;;;6721448;88;20307;-77
2022/07/05 21:17:52;;;;;;;2.00;1.20;;;19.30;96.30;;;;;;6740999;88;20982;-79
2022/07/05 21:27:53;;;;;;;3.62;1.40;;;19.40;96.80;;;;;;6733342;88;20206;-78
2022/07/05 21:37:53;;;;;;;4.10;1.27;;;19.40;97.20;;;;;;6739583;88;20205;-77
2022/07/05 21:47:54;;;;;;;4.47;1.10;;;19.20;97.80;;;;;;6737264;88;20223;-78
2022/07/05 21:57:55;;;;;;;3.22;1.20;;;19.10;98.50;;;;;;6729825;88;20234;-78
2022/07/05 22:07:55;;;;;;;2.42;0.88;;;18.80;98.90;;;;;;6733088;88;20780;-79
2022/07/05 22:17:56;;;;;;;2.40;1.17;;;18.60;99.40;;;;;;6737163;88;20201;-79
2022/07/05 22:27:56;;;;;;;2.85;1.30;;;18.50;99.90;;;;;;6739131;88;20524;-78
2022/07/05 22:37:57;;;;;;;2.47;1.08;;;18.40;99.90;;;;;;6737995;88;20181;-79
2022/07/05 22:47:57;;;;;;;3.70;1.42;;;17.90;99.90;;;;;;6738469;88;20218;-79
2022/07/05 22:57:58;;;;;;;4.87;1.55;;;17.70;99.90;;;;;;6739797;88;20209;-78
2022/07/05 23:07:59;;;;;;;2.80;1.10;;;17.60;99.90;;;;;;6735957;88;20736;-78
2022/07/05 23:17:59;;;;;;;3.00;1.30;;;17.70;99.90;;;;;;6726253;88;20209;-78
2022/07/05 23:28:00;;;;;;;6.85;1.30;;;17.50;99.90;;;;;;6724244;88;20184;-77
2022/07/05 23:38:00;;;;;;;4.18;1.15;;;17.60;99.90;;;;;;6739296;88;20173;-77
2022/07/05 23:48:01;;;;;;;5.82;1.40;;;17.40;99.90;;;;;;6742527;88;20229;-78
2022/07/05 23:58:01;;;;;;;5.60;1.35;;;17.20;99.90;;;;;;6738837;88;20268;-79
